Time;durP1;ratioP1;P1;durP2;ratioP2;P2;SDS_P1;SDS_P2;PMS_P1;PMS_P2;Temp;Humidity;BMP_temperature;BMP_pressure;BME280_temperature;BME280_humidity;BME280_pressure;Samples;Min_cycle;Max_cycle;Signal;HPM_P1;HPM_P2
2022/07/17 00:01:24;;;;;;;8.57;3.00;;;14.20;85.30;;;;;;5123804;27;21783;-65
2022/07/17 00:03:51;;;;;;;6.43;3.28;;;14.20;85.50;;;;;;5114473;28;20024;-63
2022/07/17 00:06:16;;;;;;;7.07;3.50;;;14.10;85.50;;;;;;5118733;28;20088;-63
2022/07/17 00:08:42;;;;;;;6.30;3.00;;;14.10;85.80;;;;;;5107961;28;20105;-63
2022/07/17 00:11:08;;;;;;;5.55;2.90;;;14.00;86.10;;;;;;5112423;28;20191;-63
2022/07/17 00:13:33;;;;;;;11.02;2.92;;;13.90;86.60;;;;;;5113164;28;20027;-63
2022/07/17 00:15:59;;;;;;;7.10;3.28;;;13.90;86.60;;;;;;5116158;28;20120;-63
2022/07/17 00:18:25;;;;;;;5.85;2.90;;;13.90;86.70;;;;;;5115676;28;20408;-63
2022/07/17 00:20:51;;;;;;;6.53;3.22;;;13.90;86.20;;;;;;5119197;28;20020;-63
2022/07/17 00:23:17;;;;;;;6.85;3.28;;;13.90;86.30;;;;;;5114302;28;20026;-63
2022/07/17 00:25:43;;;;;;;5.68;3.13;;;13.90;86.50;;;;;;5110668;27;20039;-63
2022/07/17 00:28:08;;;;;;;7.25;3.25;;;13.80;87.10;;;;;;5104389;28;20046;-65
2022/07/17 00:30:34;;;;;;;6.45;3.35;;;13.80;87.50;;;;;;5115050;28;20460;-63
2022/07/17 00:33:00;;;;;;;5.43;3.10;;;13.70;87.60;;;;;;5115365;28;20019;-65
2022/07/17 00:35:25;;;;;;;6.72;3.38;;;13.70;87.70;;;;;;5110284;28;20073;-64
2022/07/17 00:37:52;;;;;;;6.20;3.33;;;13.60;87.70;;;;;;5114222;28;20087;-64
2022/07/17 00:40:20;;;;;;;7.07;3.50;;;13.50;87.90;;;;;;5111657;28;20040;-64
2022/07/17 00:42:46;;;;;;;6.60;3.00;;;13.50;88.40;;;;;;5109861;28;20042;-65
2022/07/17 00:45:13;;;;;;;5.63;3.30;;;13.40;88.20;;;;;;5114648;28;20028;-63
2022/07/17 00:47:52;;;;;;;10.20;3.30;;;13.40;88.30;;;;;;5114352;28;20039;-65
2022/07/17 00:50:23;;;;;;;7.78;3.10;;;13.40;88.30;;;;;;5114995;28;20016;-65
2022/07/17 00:52:49;;;;;;;5.13;2.97;;;13.40;88.50;;;;;;5118761;27;20094;-64
2022/07/17 00:55:16;;;;;;;5.22;3.40;;;13.30;88.60;;;;;;5111288;28;20404;-64
2022/07/17 00:57:44;;;;;;;5.85;3.40;;;13.30;89.00;;;;;;5113059;28;20521;-64
2022/07/17 01:00:11;;;;;;;7.50;3.42;;;13.20;89.10;;;;;;5114936;28;20039;-64
2022/07/17 01:02:43;;;;;;;4.95;3.10;;;13.20;89.10;;;;;;5113041;28;20107;-64
2022/07/17 01:05:09;;;;;;;6.93;3.45;;;13.10;89.20;;;;;;5118901;28;20111;-64
2022/07/17 01:07:35;;;;;;;6.43;3.67;;;13.00;89.80;;;;;;5119584;28;20106;-64
2022/07/17 01:10:00;;;;;;;6.13;3.72;;;12.90;90.40;;;;;;5120197;28;20038;-63
2022/07/17 01:12:27;;;;;;;6.47;3.65;;;12.80;90.70;;;;;;5117333;28;20078;-63
2022/07/17 01:14:53;;;;;;;6.28;3.63;;;12.80;90.80;;;;;;5117720;28;20028;-63
2022/07/17 01:17:19;;;;;;;6.40;3.60;;;12.80;90.70;;;;;;5116519;27;20104;-63
2022/07/17 01:19:45;;;;;;;6.60;3.65;;;12.80;90.40;;;;;;5115125;28;20019;-63
2022/07/17 01:22:11;;;;;;;4.93;3.25;;;12.90;90.30;;;;;;5132326;27;20031;-63
2022/07/17 01:24:40;;;;;;;5.05;3.20;;;12.90;89.80;;;;;;5120182;27;20443;-64
2022/07/17 01:27:06;;;;;;;6.90;3.50;;;12.90;90.00;;;;;;5115216;27;20100;-64
2022/07/17 01:29:35;;;;;;;6.50;3.67;;;12.70;90.70;;;;;;5120628;27;20114;-64
2022/07/17 01:32:00;;;;;;;7.30;3.72;;;12.60;91.10;;;;;;5112210;27;20070;-66
2022/07/17 01:34:26;;;;;;;5.72;3.35;;;12.60;91.40;;;;;;5116616;27;20420;-63
2022/07/17 01:36:52;;;;;;;7.68;4.07;;;12.50;91.90;;;;;;5116300;27;20408;-64
2022/07/17 01:39:52;;;;;;;6.38;3.63;;;12.40;92.20;;;;;;5120381;27;20023;-64
2022/07/17 01:42:09;;;;;;;7.18;3.55;;;12.30;92.50;;;;;;5114352;27;20019;-63
2022/07/17 01:44:35;;;;;;;5.55;3.83;;;12.20;92.80;;;;;;5119828;27;20023;-63
2022/07/17 01:47:03;;;;;;;7.00;3.85;;;12.10;93.20;;;;;;5124004;27;20425;-63
2022/07/17 01:49:29;;;;;;;7.63;4.20;;;12.00;93.40;;;;;;5115758;27;20501;-64
2022/07/17 01:51:59;;;;;;;6.60;3.78;;;11.90;93.50;;;;;;5127484;27;20047;-63
2022/07/17 01:54:29;;;;;;;5.95;3.80;;;11.90;93.80;;;;;;5122213;27;20043;-63
2022/07/17 01:56:54;;;;;;;6.07;3.67;;;11.90;93.80;;;;;;5115972;27;20020;-64
2022/07/17 01:59:20;;;;;;;5.32;3.72;;;11.90;93.80;;;;;;5115209;28;20031;-64
2022/07/17 02:01:46;;;;;;;5.95;3.50;;;12.00;93.70;;;;;;5116477;27;20037;-64
2022/07/17 02:04:11;;;;;;;6.55;3.70;;;12.00;93.50;;;;;;5114968;27;20024;-64
2022/07/17 02:06:37;;;;;;;5.85;3.58;;;12.10;93.30;;;;;;5116764;27;20153;-62
2022/07/17 02:09:03;;;;;;;5.25;3.53;;;12.20;93.00;;;;;;5121510;27;20405;-62
2022/07/17 02:11:29;;;;;;;6.57;3.92;;;12.30;92.70;;;;;;5114663;28;20444;-64
2022/07/17 02:13:54;;;;;;;6.85;3.58;;;12.40;92.20;;;;;;5114213;27;20107;-64
2022/07/17 02:16:20;;;;;;;6.43;4.00;;;12.40;92.10;;;;;;5115353;27;20110;-64
2022/07/17 02:18:46;;;;;;;6.82;3.53;;;12.40;92.10;;;;;;5114229;28;20024;-64
2022/07/17 02:21:11;;;;;;;5.85;3.60;;;12.50;91.80;;;;;;5126214;27;20103;-64
2022/07/17 02:23:37;;;;;;;6.65;3.50;;;12.50;91.60;;;;;;5115851;27;20031;-63
2022/07/17 02:26:03;;;;;;;6.60;3.33;;;12.60;91.50;;;;;;5117677;27;20126;-64
2022/07/17 02:28:29;;;;;;;7.03;3.53;;;12.60;91.40;;;;;;5115371;28;20032;-64
2022/07/17 02:30:55;;;;;;;6.65;3.60;;;12.50;91.40;;;;;;5125632;27;20040;-64
2022/07/17 02:33:21;;;;;;;8.23;3.70;;;12.40;92.00;;;;;;5119727;27;20023;-64
2022/07/17 02:35:46;;;;;;;6.93;3.72;;;12.30;92.30;;;;;;5115640;28;21985;-64
2022/07/17 02:38:12;;;;;;;6.45;4.13;;;12.20;92.40;;;;;;5114831;27;20066;-64
2022/07/17 02:40:37;;;;;;;5.80;3.63;;;12.20;93.00;;;;;;5115149;28;20040;-64
2022/07/17 02:43:03;;;;;;;8.07;3.97;;;12.00;93.30;;;;;;5112094;27;20114;-64
2022/07/17 02:45:29;;;;;;;6.65;4.25;;;12.00;93.70;;;;;;5111213;27;20110;-63
2022/07/17 02:47:54;;;;;;;6.07;3.70;;;12.00;93.60;;;;;;5109379;27;20050;-63
2022/07/17 02:50:24;;;;;;;5.63;3.60;;;12.00;93.60;;;;;;5107932;27;20036;-64
2022/07/17 02:52:49;;;;;;;6.80;3.90;;;12.10;93.50;;;;;;5123034;27;20024;-64
2022/07/17 02:55:16;;;;;;;5.72;3.80;;;12.10;93.30;;;;;;5116786;27;20015;-64
2022/07/17 02:57:42;;;;;;;6.82;3.90;;;12.20;92.80;;;;;;5116239;28;20028;-64
2022/07/17 03:00:11;;;;;;;7.18;3.83;;;12.20;92.90;;;;;;5119890;27;20031;-64
2022/07/17 03:02:37;;;;;;;6.35;3.80;;;12.20;92.90;;;;;;5119935;27;20020;-64
2022/07/17 03:05:04;;;;;;;5.90;3.92;;;12.20;92.90;;;;;;5134850;27;20084;-64
2022/07/17 03:07:30;;;;;;;7.32;3.95;;;12.30;92.70;;;;;;5122088;27;20034;-64
2022/07/17 03:09:56;;;;;;;6.60;4.03;;;12.30;92.60;;;;;;5112511;27;20049;-64
2022/07/17 03:12:21;;;;;;;7.68;3.85;;;12.20;92.80;;;;;;5106175;28;20103;-64
2022/07/17 03:14:47;;;;;;;5.40;3.88;;;12.20;93.10;;;;;;5111946;27;20103;-64
2022/07/17 03:17:12;;;;;;;7.28;4.05;;;12.00;93.40;;;;;;5115650;28;20301;-64
2022/07/17 03:19:38;;;;;;;7.22;4.10;;;11.90;93.60;;;;;;5124428;27;20053;-63
2022/07/17 03:22:04;;;;;;;6.50;4.45;;;11.90;93.60;;;;;;5110905;27;20022;-64
2022/07/17 03:24:30;;;;;;;7.53;4.40;;;11.90;93.80;;;;;;5115075;27;20027;-64
2022/07/17 03:26:55;;;;;;;7.05;4.15;;;11.90;94.30;;;;;;5114586;28;20031;-64
2022/07/17 03:29:21;;;;;;;7.63;4.00;;;11.90;94.10;;;;;;5118684;27;20383;-64
2022/07/17 03:31:47;;;;;;;5.70;3.97;;;11.90;94.20;;;;;;5101349;28;20031;-64
2022/07/17 03:34:13;;;;;;;6.93;4.00;;;11.90;93.80;;;;;;5116622;27;20064;-64
2022/07/17 03:36:38;;;;;;;6.13;4.47;;;11.90;93.80;;;;;;5121476;27;20423;-64
2022/07/17 03:39:04;;;;;;;8.85;4.63;;;11.70;94.40;;;;;;5115286;28;20093;-64
2022/07/17 03:41:30;;;;;;;7.68;4.20;;;11.60;95.10;;;;;;5108849;27;20038;-64
2022/07/17 03:44:00;;;;;;;6.85;4.03;;;11.30;95.40;;;;;;5110858;28;20024;-65
2022/07/17 03:46:25;;;;;;;9.10;4.88;;;11.30;95.70;;;;;;5110614;27;20047;-63
2022/07/17 03:48:51;;;;;;;6.68;3.92;;;11.40;95.60;;;;;;5116586;27;20429;-64
2022/07/17 03:51:17;;;;;;;7.70;4.82;;;11.50;95.40;;;;;;5112915;28;20096;-64
2022/07/17 03:53:42;;;;;;;6.65;4.30;;;11.50;95.30;;;;;;5114910;28;20054;-64
2022/07/17 03:56:08;;;;;;;5.32;3.88;;;11.50;95.40;;;;;;5112755;28;20037;-65
2022/07/17 03:58:34;;;;;;;6.32;4.00;;;11.50;95.40;;;;;;5119213;28;20026;-64
2022/07/17 04:01:00;;;;;;;6.75;4.18;;;11.60;95.40;;;;;;5111971;28;20032;-64
2022/07/17 04:03:26;;;;;;;7.65;4.30;;;11.60;95.40;;;;;;5124536;27;20030;-64
2022/07/17 04:05:54;;;;;;;6.82;4.45;;;11.50;95.60;;;;;;5120191;28;20106;-64
2022/07/17 04:08:20;;;;;;;8.77;4.80;;;11.40;95.70;;;;;;5114849;28;20032;-64
2022/07/17 04:10:46;;;;;;;6.30;4.80;;;11.40;96.00;;;;;;5108276;28;20028;-63
2022/07/17 04:13:12;;;;;;;6.78;4.43;;;11.30;96.20;;;;;;5111716;28;20024;-64
2022/07/17 04:15:51;;;;;;;5.68;4.30;;;11.40;96.10;;;;;;5112925;28;20038;-64
2022/07/17 04:18:18;;;;;;;7.28;4.38;;;11.60;95.80;;;;;;5126726;28;20073;-66
2022/07/17 04:20:48;;;;;;;7.15;4.82;;;11.60;95.70;;;;;;5113881;27;20019;-66
2022/07/17 04:23:14;;;;;;;5.90;4.00;;;11.70;95.20;;;;;;5123452;28;20019;-64
2022/07/17 04:25:40;;;;;;;7.45;4.50;;;11.90;94.70;;;;;;5109806;28;20169;-65
2022/07/17 04:28:10;;;;;;;6.05;4.00;;;12.00;94.10;;;;;;5109080;28;20051;-64
2022/07/17 04:30:36;;;;;;;6.45;3.95;;;12.00;94.30;;;;;;5116170;28;20035;-64
2022/07/17 04:33:02;;;;;;;8.43;4.35;;;12.10;94.10;;;;;;5114071;28;20020;-65
2022/07/17 04:35:30;;;;;;;5.82;3.70;;;12.00;94.40;;;;;;5113768;28;20204;-64
2022/07/17 04:37:56;;;;;;;6.55;3.78;;;12.00;94.10;;;;;;5113254;28;20028;-64
2022/07/17 04:40:26;;;;;;;6.55;4.05;;;12.20;93.60;;;;;;5116330;28;20017;-64
2022/07/17 04:42:52;;;;;;;5.53;4.07;;;12.30;93.70;;;;;;5117354;28;20420;-64
2022/07/17 04:45:17;;;;;;;6.32;3.60;;;12.30;93.40;;;;;;5112580;28;20024;-65
2022/07/17 04:47:43;;;;;;;6.00;3.80;;;12.30;93.50;;;;;;5113145;28;20040;-65
2022/07/17 04:50:09;;;;;;;4.85;3.30;;;12.40;93.30;;;;;;5114000;28;20362;-64
2022/07/17 04:52:35;;;;;;;7.57;3.58;;;12.50;93.20;;;;;;5116687;28;20025;-64
2022/07/17 04:55:01;;;;;;;6.43;3.85;;;12.50;93.10;;;;;;5121791;27;20020;-65
2022/07/17 04:57:29;;;;;;;5.72;3.88;;;12.60;93.00;;;;;;5119341;27;20024;-64
2022/07/17 04:59:55;;;;;;;6.13;4.00;;;12.60;93.60;;;;;;5115697;27;20035;-64
2022/07/17 05:02:24;;;;;;;5.88;4.20;;;12.50;93.90;;;;;;5132037;27;20347;-63
2022/07/17 05:04:49;;;;;;;9.05;4.10;;;12.40;93.80;;;;;;5116337;28;20420;-64
2022/07/17 05:07:16;;;;;;;6.20;4.03;;;12.50;93.20;;;;;;5120690;27;20069;-64
2022/07/17 05:09:41;;;;;;;8.27;4.43;;;12.60;93.00;;;;;;5119681;27;20045;-64
2022/07/17 05:12:08;;;;;;;6.00;4.63;;;12.60;92.80;;;;;;5123086;27;20032;-64
2022/07/17 05:14:34;;;;;;;6.45;3.78;;;12.70;92.30;;;;;;5119891;27;20107;-64
2022/07/17 05:17:00;;;;;;;12.55;4.47;;;12.90;92.40;;;;;;5119807;27;20110;-64
2022/07/17 05:19:26;;;;;;;6.03;4.00;;;13.00;92.30;;;;;;5116846;27;20031;-64
2022/07/17 05:21:51;;;;;;;8.23;4.40;;;13.10;92.30;;;;;;5120993;27;20034;-64
2022/07/17 05:24:17;;;;;;;8.68;4.15;;;13.20;91.60;;;;;;5118576;27;20031;-64
2022/07/17 05:26:46;;;;;;;7.25;4.20;;;13.30;91.50;;;;;;5120806;27;20114;-64
2022/07/17 05:29:11;;;;;;;8.07;4.00;;;13.50;90.90;;;;;;5118815;27;20066;-64
2022/07/17 05:31:37;;;;;;;6.65;4.28;;;13.70;90.20;;;;;;5117567;28;20063;-64
2022/07/17 05:34:02;;;;;;;7.07;3.90;;;13.80;89.80;;;;;;5123651;27;20070;-64
2022/07/17 05:36:28;;;;;;;5.05;3.40;;;14.00;89.50;;;;;;5114570;27;20325;-64
2022/07/17 05:38:54;;;;;;;7.45;3.97;;;14.10;89.20;;;;;;5112091;27;20752;-63
2022/07/17 05:41:20;;;;;;;6.75;3.72;;;14.30;87.60;;;;;;5111275;27;20020;-64
2022/07/17 05:43:45;;;;;;;8.32;3.95;;;14.60;86.70;;;;;;5116976;27;20038;-64
2022/07/17 05:46:11;;;;;;;9.27;4.82;;;14.80;85.40;;;;;;5116684;27;20047;-64
2022/07/17 05:48:36;;;;;;;6.55;3.35;;;15.00;85.30;;;;;;5116119;27;20031;-64
2022/07/17 05:51:02;;;;;;;7.40;3.45;;;15.10;85.00;;;;;;5118281;27;20089;-65
2022/07/17 05:53:28;;;;;;;6.68;3.90;;;15.20;84.60;;;;;;5114663;27;20320;-64
2022/07/17 05:55:57;;;;;;;7.05;3.53;;;15.40;84.20;;;;;;5115877;27;20027;-63
2022/07/17 05:58:23;;;;;;;6.53;3.60;;;15.60;83.60;;;;;;5113663;27;20024;-64
2022/07/17 06:00:48;;;;;;;5.55;3.33;;;15.70;83.00;;;;;;5110876;27;20042;-64
2022/07/17 06:03:15;;;;;;;9.75;4.22;;;15.80;83.70;;;;;;5114750;27;20031;-64
2022/07/17 06:05:41;;;;;;;6.28;3.58;;;15.90;83.70;;;;;;5110699;27;20043;-64
2022/07/17 06:08:07;;;;;;;5.53;3.28;;;16.00;83.30;;;;;;5114274;27;20031;-64
2022/07/17 06:10:37;;;;;;;7.10;3.85;;;16.10;83.00;;;;;;5115143;27;20073;-64
2022/07/17 06:13:03;;;;;;;6.85;3.35;;;16.10;83.20;;;;;;5106207;27;20054;-63
2022/07/17 06:15:29;;;;;;;5.85;3.20;;;16.20;82.70;;;;;;5113618;27;20027;-64
2022/07/17 06:17:54;;;;;;;9.32;3.60;;;16.30;82.10;;;;;;5111367;27;20033;-64
2022/07/17 06:20:20;;;;;;;6.05;3.50;;;16.40;82.30;;;;;;5110318;28;20023;-64
2022/07/17 06:22:46;;;;;;;7.10;3.80;;;16.50;82.30;;;;;;5118710;27;20428;-64
2022/07/17 06:25:12;;;;;;;6.57;3.15;;;16.60;81.60;;;;;;5111880;28;20068;-64
2022/07/17 06:27:42;;;;;;;5.93;3.58;;;16.70;81.60;;;;;;5110802;27;20039;-64
2022/07/17 06:30:10;;;;;;;7.10;3.40;;;16.80;80.60;;;;;;5114908;27;20382;-64
2022/07/17 06:32:35;;;;;;;6.25;3.42;;;16.90;81.00;;;;;;5114238;27;20035;-64
2022/07/17 06:35:03;;;;;;;5.45;3.28;;;17.00;80.50;;;;;;5115348;27;20015;-64
2022/07/17 06:37:29;;;;;;;5.53;3.20;;;17.10;80.30;;;;;;5115795;28;20117;-64
2022/07/17 06:39:55;;;;;;;5.55;3.40;;;17.30;80.30;;;;;;5113118;27;20048;-64
2022/07/17 06:42:21;;;;;;;7.57;3.70;;;17.40;80.30;;;;;;5111519;27;20382;-64
2022/07/17 06:44:46;;;;;;;7.72;3.30;;;17.60;80.50;;;;;;5111511;27;20035;-64
2022/07/17 06:47:12;;;;;;;7.47;3.20;;;17.80;80.30;;;;;;5114305;27;20048;-64
2022/07/17 06:49:38;;;;;;;6.53;3.15;;;17.90;80.00;;;;;;5116144;27;20370;-64
2022/07/17 06:52:03;;;;;;;7.78;3.88;;;18.00;79.40;;;;;;5115569;27;20067;-64
2022/07/17 06:54:29;;;;;;;7.20;3.35;;;18.10;79.70;;;;;;5110600;27;20031;-64
2022/07/17 06:56:55;;;;;;;5.75;3.10;;;18.20;78.90;;;;;;5111712;27;20034;-64
2022/07/17 06:59:20;;;;;;;6.40;3.00;;;18.30;78.90;;;;;;5124832;27;20024;-65
2022/07/17 07:01:46;;;;;;;5.18;3.15;;;18.50;78.60;;;;;;5112736;27;20023;-64
2022/07/17 07:04:12;;;;;;;6.22;3.38;;;18.50;78.80;;;;;;5109235;27;20653;-64
2022/07/17 07:06:38;;;;;;;6.72;3.40;;;18.70;79.00;;;;;;5111259;27;20039;-64
2022/07/17 07:09:07;;;;;;;6.70;3.50;;;18.80;78.70;;;;;;5110075;27;20106;-64
2022/07/17 07:11:36;;;;;;;8.27;4.00;;;18.90;78.80;;;;;;5114548;27;20028;-63
2022/07/17 07:14:01;;;;;;;5.97;3.40;;;19.00;77.90;;;;;;5105978;27;20015;-71
2022/07/17 07:16:27;;;;;;;6.10;3.25;;;19.10;78.00;;;;;;5106118;27;20026;-66
2022/07/17 07:18:52;;;;;;;7.22;3.55;;;19.30;77.70;;;;;;5102418;27;20020;-65
2022/07/17 07:21:18;;;;;;;6.93;3.67;;;19.30;78.30;;;;;;5111253;28;20031;-65
2022/07/17 07:23:46;;;;;;;6.22;3.40;;;19.40;77.90;;;;;;5108023;27;20024;-66
2022/07/17 07:26:12;;;;;;;6.18;3.30;;;19.50;77.60;;;;;;5111097;28;20059;-66
2022/07/17 07:28:38;;;;;;;5.28;3.10;;;19.60;77.80;;;;;;5109778;28;20062;-65
2022/07/17 07:31:03;;;;;;;7.72;3.63;;;19.70;78.20;;;;;;5123748;27;20028;-64
2022/07/17 07:33:29;;;;;;;6.55;3.10;;;19.90;77.20;;;;;;5108829;27;20047;-64
2022/07/17 07:35:55;;;;;;;6.38;3.10;;;20.20;77.10;;;;;;5111381;27;20028;-64
2022/07/17 07:38:21;;;;;;;7.85;3.83;;;21.10;75.50;;;;;;5108910;27;20028;-65
2022/07/17 07:40:46;;;;;;;6.97;3.25;;;22.20;72.50;;;;;;5113209;27;20093;-65
2022/07/17 07:43:12;;;;;;;4.97;3.05;;;22.80;71.10;;;;;;5111194;27;20032;-65
2022/07/17 07:45:37;;;;;;;6.43;2.63;;;23.00;70.20;;;;;;5108155;28;20080;-64
2022/07/17 07:48:03;;;;;;;5.32;3.10;;;23.30;70.50;;;;;;5109365;28;20150;-64
2022/07/17 07:50:29;;;;;;;6.07;2.90;;;23.60;69.10;;;;;;5105795;28;20432;-64
2022/07/17 07:52:55;;;;;;;6.55;3.22;;;24.20;68.70;;;;;;5109496;27;20032;-64
2022/07/17 07:55:21;;;;;;;4.68;2.83;;;24.50;67.40;;;;;;5107433;28;20416;-64
2022/07/17 07:57:48;;;;;;;5.45;2.65;;;24.50;67.50;;;;;;5116969;27;20027;-63
2022/07/17 08:00:14;;;;;;;5.15;2.97;;;24.80;66.80;;;;;;5102136;27;20420;-64
2022/07/17 08:02:40;;;;;;;6.53;2.90;;;25.80;65.60;;;;;;5107431;27;20032;-63
2022/07/17 08:05:07;;;;;;;6.15;3.00;;;26.30;63.10;;;;;;5099275;27;20036;-64
2022/07/17 08:07:38;;;;;;;7.10;2.70;;;26.30;63.50;;;;;;5097088;28;20030;-62
2022/07/17 08:10:04;;;;;;;4.93;2.80;;;26.80;62.20;;;;;;5091581;28;20028;-64
2022/07/17 08:12:30;;;;;;;4.82;2.50;;;26.70;62.20;;;;;;5097459;28;20119;-63
2022/07/17 08:14:56;;;;;;;5.22;2.85;;;26.80;62.50;;;;;;5092593;28;20315;-64
2022/07/17 08:17:22;;;;;;;4.07;2.42;;;27.00;62.10;;;;;;5099412;28;20504;-64
2022/07/17 08:19:47;;;;;;;5.30;2.60;;;27.30;61.60;;;;;;5094229;28;20073;-64
2022/07/17 08:22:13;;;;;;;5.75;2.33;;;27.50;60.90;;;;;;5103213;28;20031;-64
2022/07/17 08:24:39;;;;;;;7.47;2.78;;;27.80;59.70;;;;;;5111628;28;20016;-64
2022/07/17 08:27:04;;;;;;;4.90;2.35;;;27.90;60.10;;;;;;5112763;28;20051;-65
2022/07/17 08:29:30;;;;;;;5.00;2.47;;;28.20;59.20;;;;;;5109084;28;20383;-64
2022/07/17 08:31:56;;;;;;;5.00;2.63;;;28.70;57.90;;;;;;5114526;27;20027;-64
2022/07/17 08:34:22;;;;;;;7.05;2.78;;;28.70;57.60;;;;;;5109000;27;20089;-64
2022/07/17 08:36:48;;;;;;;5.90;2.35;;;28.80;57.00;;;;;;5117125;27;20305;-64
2022/07/17 08:39:13;;;;;;;7.18;2.63;;;28.80;56.00;;;;;;5105852;27;20467;-64
2022/07/17 08:41:40;;;;;;;7.90;2.83;;;28.70;56.10;;;;;;5106770;27;20028;-64
2022/07/17 08:44:11;;;;;;;4.78;2.47;;;28.50;56.70;;;;;;5108468;27;20082;-64
2022/07/17 08:46:38;;;;;;;6.88;2.60;;;29.00;56.20;;;;;;5114321;27;20083;-64
2022/07/17 08:49:07;;;;;;;5.88;2.72;;;28.80;55.30;;;;;;5112848;27;20080;-64
2022/07/17 08:51:34;;;;;;;5.30;2.50;;;28.30;55.30;;;;;;5110444;27;20015;-65
2022/07/17 08:54:00;;;;;;;5.20;2.15;;;27.80;56.00;;;;;;5111016;27;20095;-64
2022/07/17 08:56:26;;;;;;;4.85;2.22;;;28.00;56.10;;;;;;5111749;28;20107;-64
2022/07/17 08:58:52;;;;;;;6.18;2.15;;;28.50;54.70;;;;;;5111313;28;20070;-64
2022/07/17 09:01:19;;;;;;;5.93;2.40;;;28.70;54.40;;;;;;5108376;27;20019;-64
2022/07/17 09:04:06;;;;;;;4.35;2.30;;;29.30;52.80;;;;;;5118050;27;20024;-64
2022/07/17 09:06:33;;;;;;;6.75;2.20;;;29.20;54.40;;;;;;5113634;27;20420;-64
2022/07/17 09:09:03;;;;;;;5.15;2.10;;;29.60;52.30;;;;;;5114158;27;20016;-64
2022/07/17 09:11:29;;;;;;;5.00;2.10;;;30.30;52.70;;;;;;5108148;27;20063;-64
2022/07/17 09:13:55;;;;;;;4.65;2.30;;;29.90;50.70;;;;;;5107924;27;20027;-64
2022/07/17 09:16:21;;;;;;;6.38;2.40;;;29.40;51.00;;;;;;5110013;27;20020;-65
2022/07/17 09:18:53;;;;;;;6.25;2.40;;;28.50;54.00;;;;;;5108119;27;20024;-64
2022/07/17 09:21:27;;;;;;;5.45;1.80;;;29.00;53.60;;;;;;5114584;27;20472;-64
2022/07/17 09:24:04;;;;;;;5.53;2.17;;;29.40;49.70;;;;;;5123636;27;20019;-64
2022/07/17 09:26:32;;;;;;;4.65;1.90;;;29.90;51.10;;;;;;5111624;27;20051;-64
2022/07/17 09:29:00;;;;;;;5.13;2.28;;;30.00;49.90;;;;;;5100734;27;20435;-64
2022/07/17 09:31:27;;;;;;;4.28;2.10;;;30.10;50.70;;;;;;5117667;27;20027;-64
2022/07/17 09:33:53;;;;;;;5.38;2.20;;;29.80;50.40;;;;;;5109947;27;20026;-64
2022/07/17 09:36:20;;;;;;;4.88;2.00;;;29.80;50.90;;;;;;5115884;27;20028;-64
2022/07/17 09:38:46;;;;;;;5.95;2.30;;;29.20;51.70;;;;;;5116535;27;20451;-64
2022/07/17 09:41:13;;;;;;;5.43;2.50;;;29.20;52.60;;;;;;5118188;27;20035;-64
2022/07/17 09:43:42;;;;;;;5.97;2.45;;;28.80;52.20;;;;;;5123351;27;20020;-64
2022/07/17 09:46:08;;;;;;;5.18;2.38;;;28.20;52.90;;;;;;5113380;27;20036;-64
2022/07/17 09:48:40;;;;;;;5.88;2.10;;;28.40;52.40;;;;;;5115300;28;20298;-64
2022/07/17 09:51:06;;;;;;;7.32;2.35;;;28.90;52.40;;;;;;5114707;27;20052;-64
2022/07/17 09:53:36;;;;;;;5.20;2.20;;;29.50;51.80;;;;;;5113330;27;20027;-64
2022/07/17 09:56:02;;;;;;;5.85;2.40;;;29.20;52.00;;;;;;5113675;27;20420;-64
2022/07/17 09:58:32;;;;;;;4.65;2.00;;;29.00;51.70;;;;;;5113220;28;20032;-64
2022/07/17 10:00:59;;;;;;;4.47;2.10;;;28.80;53.40;;;;;;5115629;27;20312;-64
2022/07/17 10:03:25;;;;;;;3.55;1.90;;;29.30;51.20;;;;;;5117375;27;20032;-64
2022/07/17 10:05:51;;;;;;;4.25;1.95;;;30.20;50.50;;;;;;5102209;27;20029;-64
2022/07/17 10:08:17;;;;;;;5.85;2.35;;;30.70;49.60;;;;;;5115126;27;20134;-66
2022/07/17 10:10:44;;;;;;;5.75;2.10;;;30.70;49.20;;;;;;5114561;27;20476;-65
2022/07/17 10:13:12;;;;;;;5.72;2.08;;;30.00;50.10;;;;;;5124185;27;20046;-64
2022/07/17 10:15:38;;;;;;;5.13;2.20;;;29.70;50.30;;;;;;5116474;28;20034;-65
2022/07/17 10:18:08;;;;;;;5.40;2.28;;;30.10;50.10;;;;;;5099884;27;20028;-64
2022/07/17 10:20:34;;;;;;;6.03;2.10;;;30.10;50.60;;;;;;5112880;27;20020;-65
2022/07/17 10:22:59;;;;;;;6.10;2.50;;;29.60;49.90;;;;;;5112057;27;20088;-65
2022/07/17 10:25:25;;;;;;;6.60;2.30;;;29.70;51.10;;;;;;5102896;27;20101;-65
2022/07/17 10:27:53;;;;;;;5.85;2.10;;;29.60;50.90;;;;;;5112521;27;20106;-64
2022/07/17 10:30:31;;;;;;;3.60;1.98;;;29.60;51.00;;;;;;5117561;28;20015;-64
2022/07/17 10:32:59;;;;;;;7.13;2.30;;;29.30;51.20;;;;;;5123725;27;20316;-64
2022/07/17 10:35:26;;;;;;;4.65;2.00;;;29.30;52.40;;;;;;5116208;28;20035;-65
2022/07/17 10:37:53;;;;;;;5.75;1.85;;;29.90;51.40;;;;;;5114073;27;20051;-64
2022/07/17 10:40:28;;;;;;;4.88;2.10;;;30.60;49.90;;;;;;5117023;27;20051;-64
2022/07/17 10:43:09;;;;;;;4.63;1.98;;;31.10;48.10;;;;;;5114352;27;20024;-65
2022/07/17 10:45:45;;;;;;;4.78;1.88;;;30.80;48.40;;;;;;5120993;27;20027;-65
2022/07/17 10:48:18;;;;;;;5.95;1.92;;;29.80;50.50;;;;;;5114481;27;20034;-65
2022/07/17 10:50:56;;;;;;;3.85;1.85;;;29.70;50.20;;;;;;5120256;27;20020;-63
2022/07/17 10:53:39;;;;;;;4.10;2.08;;;30.30;49.20;;;;;;5089500;28;20067;-63
2022/07/17 10:56:09;;;;;;;4.65;2.00;;;30.80;48.60;;;;;;5113306;27;20149;-66
2022/07/17 10:58:37;;;;;;;4.13;2.00;;;29.80;49.10;;;;;;5109783;28;20436;-64
2022/07/17 11:01:17;;;;;;;5.15;2.08;;;29.30;49.90;;;;;;5113285;27;20039;-65
2022/07/17 11:03:46;;;;;;;6.28;2.20;;;29.40;50.80;;;;;;5109950;28;20023;-65
2022/07/17 11:06:27;;;;;;;5.43;2.20;;;29.00;50.90;;;;;;5115718;27;20035;-64
2022/07/17 11:09:04;;;;;;;6.80;2.25;;;29.30;51.00;;;;;;5111314;27;20039;-64
2022/07/17 11:12:04;;;;;;;4.97;2.47;;;29.90;51.70;;;;;;5112647;28;20055;-64
2022/07/17 11:14:33;;;;;;;4.70;2.22;;;30.20;49.40;;;;;;5116722;27;20039;-63
2022/07/17 11:17:01;;;;;;;4.03;2.00;;;30.20;50.00;;;;;;5105183;27;20024;-64
2022/07/17 11:19:26;;;;;;;5.28;2.20;;;30.70;48.70;;;;;;5108154;28;20133;-64
2022/07/17 11:21:55;;;;;;;7.22;1.80;;;31.20;48.20;;;;;;5112277;27;20024;-63
2022/07/17 11:24:21;;;;;;;4.47;2.20;;;31.50;48.60;;;;;;5112916;27;20035;-65
2022/07/17 11:26:58;;;;;;;6.20;2.10;;;31.00;48.10;;;;;;5107778;28;20032;-64
2022/07/17 11:29:27;;;;;;;6.00;2.65;;;29.80;49.80;;;;;;5112140;27;20340;-64
2022/07/17 11:31:59;;;;;;;6.03;2.13;;;29.30;51.90;;;;;;5113338;28;20027;-63
2022/07/17 11:34:25;;;;;;;5.10;2.22;;;29.20;50.90;;;;;;5119803;27;20031;-65
2022/07/17 11:36:59;;;;;;;4.45;2.20;;;29.50;51.10;;;;;;5113815;27;20020;-64
2022/07/17 11:39:25;;;;;;;;;;;29.30;51.00;;;;;;5116555;27;20028;-64
2022/07/17 11:41:53;;;;;;;7.03;2.33;;;29.90;51.80;;;;;;5112088;27;19908;-65
2022/07/17 11:44:20;;;;;;;4.30;2.20;;;29.50;50.70;;;;;;5113925;28;20031;-64
2022/07/17 11:46:49;;;;;;;5.70;2.33;;;29.20;51.50;;;;;;5115572;27;20075;-65
2022/07/17 11:49:26;;;;;;;3.80;2.15;;;28.90;51.40;;;;;;5122645;27;20026;-65
2022/07/17 11:51:54;;;;;;;4.45;2.28;;;29.10;50.60;;;;;;5109519;28;20077;-65
2022/07/17 11:54:20;;;;;;;6.70;2.30;;;29.20;50.30;;;;;;5113081;27;20023;-65
2022/07/17 11:56:54;;;;;;;5.63;2.25;;;29.10;52.30;;;;;;5114588;28;20332;-65
2022/07/17 11:59:30;;;;;;;6.72;2.22;;;29.50;50.70;;;;;;5118273;27;20320;-65
2022/07/17 12:02:06;;;;;;;6.32;2.00;;;29.90;50.40;;;;;;5111474;27;20038;-63
2022/07/17 12:04:31;;;;;;;4.85;2.30;;;30.00;49.10;;;;;;5109783;27;20104;-64
2022/07/17 12:07:03;;;;;;;5.35;2.00;;;30.10;49.40;;;;;;5111149;27;20073;-65
2022/07/17 12:09:34;;;;;;;4.72;2.25;;;30.20;50.10;;;;;;5116683;27;20038;-65
2022/07/17 12:12:02;;;;;;;4.82;2.10;;;30.30;49.60;;;;;;5105537;28;20103;-66
2022/07/17 12:14:29;;;;;;;5.18;2.00;;;30.00;49.50;;;;;;5113798;28;20030;-66
2022/07/17 12:16:57;;;;;;;3.78;1.77;;;29.70;49.20;;;;;;5114629;28;20424;-64
2022/07/17 12:19:24;;;;;;;5.90;2.17;;;29.60;50.10;;;;;;5116779;28;20024;-64
2022/07/17 12:21:57;;;;;;;5.22;1.77;;;29.50;49.90;;;;;;5101848;28;20024;-64
2022/07/17 12:24:40;;;;;;;;;;;29.70;50.00;;;;;;5113856;28;20106;-63
2022/07/17 12:27:08;;;;;;;3.88;2.13;;;30.20;50.00;;;;;;5110848;28;19994;-65
2022/07/17 12:29:35;;;;;;;6.03;2.05;;;30.70;47.70;;;;;;5122120;28;20038;-65
2022/07/17 12:32:10;;;;;;;4.45;1.80;;;30.30;48.30;;;;;;5106955;28;20035;-65
2022/07/17 12:34:44;;;;;;;3.00;1.90;;;29.80;48.20;;;;;;5109929;28;20453;-65
2022/07/17 12:37:11;;;;;;;4.38;1.73;;;29.40;49.70;;;;;;5113346;28;20034;-66
2022/07/17 12:39:36;;;;;;;4.50;2.00;;;29.60;49.30;;;;;;5114389;28;20054;-65
2022/07/17 12:42:03;;;;;;;5.35;1.90;;;30.00;47.80;;;;;;5116509;28;20157;-65
2022/07/17 12:44:29;;;;;;;7.30;1.90;;;29.90;48.30;;;;;;5110221;28;20456;-65
2022/07/17 12:46:55;;;;;;;4.88;1.80;;;30.20;47.10;;;;;;5108202;28;20090;-65
2022/07/17 12:49:21;;;;;;;3.72;1.70;;;30.80;46.60;;;;;;5112645;28;20324;-65